Time;durP1;ratioP1;P1;durP2;ratioP2;P2;SDS_P1;SDS_P2;PMS_P1;PMS_P2;Temp;Humidity;BMP_temperature;BMP_pressure;BME280_temperature;BME280_humidity;BME280_pressure;Samples;Min_cycle;Max_cycle;Signal;HPM_P1;HPM_P2
2022/10/30 00:01:25;;;;;;;;;;;;;;;18.46;88.96;101019.72;7385175;19;19918;-60
2022/10/30 00:03:52;;;;;;;;;;;;;;;18.41;88.92;101030.97;7386927;19;19936;-61
2022/10/30 00:06:19;;;;;;;;;;;;;;;18.38;88.88;101021.56;7387685;19;19919;-61
2022/10/30 00:08:45;;;;;;;;;;;;;;;18.38;90.04;101029.53;7386318;19;19930;-60
2022/10/30 00:11:12;;;;;;;;;;;;;;;18.35;89.25;101037.91;7385166;19;19918;-61
2022/10/30 00:13:41;;;;;;;;;;;;;;;18.34;89.82;101043.44;7383720;19;19922;-61
2022/10/30 00:16:08;;;;;;;;;;;;;;;18.29;89.80;101037.88;7385485;19;19918;-61
2022/10/30 00:18:36;;;;;;;;;;;;;;;18.29;90.30;101057.34;7384816;19;19915;-60
2022/10/30 00:21:05;;;;;;;;;;;;;;;18.30;90.72;101060.84;7385884;19;19910;-61
2022/10/30 00:23:32;;;;;;;;;;;;;;;18.30;90.36;101064.34;7386492;19;20372;-61
2022/10/30 00:26:03;;;;;;;;;;;;;;;18.29;90.56;101057.34;7387314;19;19919;-61
2022/10/30 00:28:29;;;;;;;;;;;;;;;18.29;90.13;101059.19;7381442;19;19938;-61
2022/10/30 00:30:58;;;;;;;;;;;;;;;18.29;90.20;101061.84;7386510;19;19998;-61
2022/10/30 00:33:25;;;;;;;;;;;;;;;18.26;90.10;101043.63;7385399;19;19954;-60
2022/10/30 00:35:52;;;;;;;;;;;;;;;18.28;90.07;101036.25;7386177;19;19914;-60
2022/10/30 00:38:19;;;;;;;;;;;;;;;18.30;90.59;101027.03;7385421;19;19919;-61
2022/10/30 00:40:46;;;;;;;;;;;;;;;18.33;90.28;101039.97;7385174;19;19918;-61
2022/10/30 00:43:16;;;;;;;;;;;;;;;18.33;89.92;101028.50;7380481;19;19914;-61
2022/10/30 00:45:43;;;;;;;;;;;;;;;18.33;90.03;101021.31;7386742;19;20332;-61
2022/10/30 00:48:10;;;;;;;;;;;;;;;18.35;90.17;101019.25;7386705;19;19925;-60
2022/10/30 00:50:37;;;;;;;;;;;;;;;18.36;89.93;101009.44;7387594;19;19914;-62
2022/10/30 00:53:06;;;;;;;;;;;;;;;18.36;89.76;101001.44;7386899;19;20504;-61
2022/10/30 00:55:37;;;;;;;;;;;;;;;18.36;89.36;101018.25;7384026;19;19922;-60
2022/10/30 00:58:06;;;;;;;;;;;;;;;18.36;89.77;101009.44;7379580;19;20054;-61
2022/10/30 01:00:35;;;;;;;;;;;;;;;18.37;89.72;101000.41;7386217;19;19963;-61
2022/10/30 01:03:02;;;;;;;;;;;;;;;18.38;89.44;101002.06;7382588;19;20253;-60
2022/10/30 01:05:31;;;;;;;;;;;;;;;18.37;89.53;101001.25;7385517;19;19926;-60
2022/10/30 01:07:58;;;;;;;;;;;;;;;18.36;89.26;101002.25;7385768;19;19922;-60
2022/10/30 01:10:26;;;;;;;;;;;;;;;18.36;89.30;100999.59;7384397;19;19942;-61
2022/10/30 01:12:54;;;;;;;;;;;;;;;18.34;89.81;100982.97;7381778;19;19914;-61
2022/10/30 01:15:26;;;;;;;;;;;;;;;18.34;89.87;100988.31;7387029;19;19947;-61
2022/10/30 01:17:56;;;;;;;;;;;;;;;18.34;89.95;101006.13;7381742;19;19919;-61
2022/10/30 01:20:24;;;;;;;;;;;;;;;18.32;90.18;101008.19;7386628;19;20404;-61
2022/10/30 01:22:58;;;;;;;;;;;;;;;18.31;90.53;100993.22;7383954;19;20237;-61
2022/10/30 01:25:27;;;;;;;;;;;;;;;18.32;90.69;100973.56;7385108;19;19923;-61
2022/10/30 01:27:57;;;;;;;;;;;;;;;18.30;90.39;100983.56;7381900;19;19921;-61
2022/10/30 01:30:27;;;;;;;;;;;;;;;18.28;90.11;100996.28;7387612;19;19931;-62
2022/10/30 01:33:02;;;;;;;;;;;;;;;18.27;90.41;100991.97;7384331;19;19923;-61
2022/10/30 01:35:30;;;;;;;;;;;;;;;18.24;90.27;100990.53;7385412;19;20275;-60
2022/10/30 01:38:00;;;;;;;;;;;;;;;18.23;90.41;100985.41;7384329;19;19923;-60
2022/10/30 01:40:27;;;;;;;;;;;;;;;18.23;91.34;100978.25;7386091;19;19926;-60
2022/10/30 01:42:55;;;;;;;;;;;;;;;18.23;91.34;100986.25;7382691;19;19922;-61
2022/10/30 01:45:27;;;;;;;;;;;;;;;18.22;91.16;100987.25;7386193;19;19929;-60
2022/10/30 01:48:01;;;;;;;;;;;;;;;18.20;91.02;100981.28;7393094;19;19924;-61
2022/10/30 01:50:36;;;;;;;;;;;;;;;18.18;91.27;100986.00;7393810;19;20257;-59
2022/10/30 01:53:07;;;;;;;;;;;;;;;18.16;91.29;100977.38;7390770;19;20251;-61
2022/10/30 01:55:36;;;;;;;;;;;;;;;18.16;91.69;100982.72;7391130;19;19915;-61
2022/10/30 01:58:06;;;;;;;;;;;;;;;18.16;91.88;100972.06;7386823;19;19963;-60
2022/10/30 02:00:33;;;;;;;;;;;;;;;18.16;91.59;100985.38;7391586;19;19918;-61
2022/10/30 02:03:00;;;;;;;;;;;;;;;18.15;91.73;100990.88;7391766;19;19918;-59
2022/10/30 02:05:30;;;;;;;;;;;;;;;18.14;91.70;100995.41;7390614;19;20285;-61
2022/10/30 02:07:57;;;;;;;;;;;;;;;18.16;92.06;100996.03;7390582;19;19923;-60
2022/10/30 02:10:25;;;;;;;;;;;;;;;18.16;92.52;100988.03;7391318;19;19922;-61
2022/10/30 02:12:52;;;;;;;;;;;;;;;18.17;92.06;100983.53;7389038;19;19958;-61
2022/10/30 02:15:19;;;;;;;;;;;;;;;18.13;91.73;100977.78;7388786;19;19918;-60
2022/10/30 02:17:46;;;;;;;;;;;;;;;18.11;91.58;100976.34;7388827;19;19918;-61
2022/10/30 02:20:15;;;;;;;;;;;;;;;18.08;91.92;100972.22;7390894;19;19922;-61
2022/10/30 02:22:42;;;;;;;;;;;;;;;18.06;91.63;100958.28;7390577;19;19926;-61
2022/10/30 02:25:08;;;;;;;;;;;;;;;18.08;92.54;100958.09;7388317;19;19982;-61
2022/10/30 02:27:35;;;;;;;;;;;;;;;18.09;92.68;100981.84;7389544;19;20626;-60
2022/10/30 02:30:03;;;;;;;;;;;;;;;18.09;92.04;100983.69;7388652;19;19995;-62
2022/10/30 02:32:30;;;;;;;;;;;;;;;18.06;91.89;100979.59;7388223;19;19918;-62
2022/10/30 02:34:57;;;;;;;;;;;;;;;18.04;91.94;100968.31;7390051;19;20333;-61
2022/10/30 02:37:24;;;;;;;;;;;;;;;18.03;92.02;100971.19;7390274;19;19914;-61
2022/10/30 02:39:51;;;;;;;;;;;;;;;18.02;92.53;100965.03;7388190;19;19918;-60
2022/10/30 02:42:18;;;;;;;;;;;;;;;18.04;93.30;100972.81;7385868;19;19914;-61
2022/10/30 02:44:45;;;;;;;;;;;;;;;18.03;92.98;100973.84;7387523;19;19930;-61
2022/10/30 02:47:12;;;;;;;;;;;;;;;17.99;92.55;100968.06;7391075;19;19919;-61
2022/10/30 02:49:39;;;;;;;;;;;;;;;17.97;92.85;100972.78;7389503;19;19943;-61
2022/10/30 02:52:07;;;;;;;;;;;;;;;17.93;92.58;100968.84;7389898;19;19918;-61
2022/10/30 02:54:34;;;;;;;;;;;;;;;17.91;92.58;100955.75;7390162;19;19927;-60
2022/10/30 02:57:01;;;;;;;;;;;;;;;17.89;92.97;100959.63;7384237;19;19926;-61
2022/10/30 02:59:28;;;;;;;;;;;;;;;17.88;93.10;100956.13;7385904;19;20351;-61
2022/10/30 03:01:55;;;;;;;;;;;;;;;17.88;92.72;100952.66;7389141;19;19923;-62
2022/10/30 03:04:22;;;;;;;;;;;;;;;17.85;92.70;100956.53;7390589;19;20416;-60
2022/10/30 03:06:49;;;;;;;;;;;;;;;17.85;92.81;100953.06;7390756;19;20321;-61
2022/10/30 03:09:19;;;;;;;;;;;;;;;17.82;92.79;100964.94;7387345;19;19950;-60
2022/10/30 03:11:46;;;;;;;;;;;;;;;17.81;92.90;100959.81;7388388;19;19919;-61
2022/10/30 03:14:13;;;;;;;;;;;;;;;17.79;92.91;100956.50;7389687;19;20343;-61
2022/10/30 03:16:41;;;;;;;;;;;;;;;17.77;92.62;100956.72;7388482;19;19925;-61
2022/10/30 03:19:08;;;;;;;;;;;;;;;17.76;92.55;100955.06;7389204;19;20254;-62
2022/10/30 03:21:35;;;;;;;;;;;;;;;17.74;92.36;100957.09;7385089;19;19918;-61
2022/10/30 03:24:02;;;;;;;;;;;;;;;17.73;92.33;100957.28;7389085;19;19915;-60
2022/10/30 03:26:29;;;;;;;;;;;;;;;17.70;92.13;100958.50;7388830;19;19926;-62
2022/10/30 03:28:56;;;;;;;;;;;;;;;17.68;92.66;100962.38;7386249;19;19930;-60
2022/10/30 03:31:23;;;;;;;;;;;;;;;17.69;92.95;100972.00;7387863;19;19922;-61
2022/10/30 03:33:50;;;;;;;;;;;;;;;17.69;92.87;100972.00;7388963;19;20565;-61
2022/10/30 03:36:17;;;;;;;;;;;;;;;17.67;92.55;100968.75;7388104;19;20478;-61
2022/10/30 03:38:44;;;;;;;;;;;;;;;17.65;92.69;100979.56;7385153;19;19915;-61
2022/10/30 03:41:11;;;;;;;;;;;;;;;17.63;92.70;100976.28;7386795;19;19927;-61
2022/10/30 03:43:38;;;;;;;;;;;;;;;17.62;92.84;100987.13;7386010;19;19910;-61
2022/10/30 03:46:05;;;;;;;;;;;;;;;17.62;92.96;100984.47;7388109;19;20344;-61
2022/10/30 03:48:31;;;;;;;;;;;;;;;17.61;92.88;100986.31;7387675;19;19935;-61
2022/10/30 03:50:59;;;;;;;;;;;;;;;17.61;92.60;100982.81;7388283;19;19922;-61
2022/10/30 03:53:27;;;;;;;;;;;;;;;17.60;92.42;100984.66;7386871;19;20007;-61
2022/10/30 03:55:57;;;;;;;;;;;;;;;17.59;92.16;100967.03;7388375;19;19926;-61
2022/10/30 03:58:24;;;;;;;;;;;;;;;17.57;92.40;100968.22;7383482;19;19915;-61
2022/10/30 04:00:51;;;;;;;;;;;;;;;17.58;92.65;100968.00;7385310;19;19922;-60
2022/10/30 04:03:18;;;;;;;;;;;;;;;17.54;92.83;100959.59;7387012;19;19926;-61
2022/10/30 04:05:45;;;;;;;;;;;;;;;17.54;92.80;100956.94;7385341;19;19918;-62
2022/10/30 04:08:13;;;;;;;;;;;;;;;17.54;92.77;100961.44;7386790;19;19922;-62
2022/10/30 04:10:42;;;;;;;;;;;;;;;17.51;92.66;100962.66;7386170;19;20264;-61
2022/10/30 04:13:11;;;;;;;;;;;;;;;17.51;92.97;100967.16;7382094;19;19911;-62
2022/10/30 04:15:38;;;;;;;;;;;;;;;17.51;92.95;100970.66;7389755;19;19923;-61
2022/10/30 04:18:05;;;;;;;;;;;;;;;17.52;92.61;100966.16;7385109;19;19919;-65
2022/10/30 04:20:32;;;;;;;;;;;;;;;17.52;93.31;100966.94;7386573;19;19931;-60
2022/10/30 04:23:00;;;;;;;;;;;;;;;17.51;93.08;100961.84;7385728;19;19946;-61
2022/10/30 04:25:28;;;;;;;;;;;;;;;17.48;93.05;100963.03;7385858;19;19925;-61
2022/10/30 04:27:55;;;;;;;;;;;;;;;17.47;93.00;100969.38;7382271;19;20179;-61
2022/10/30 04:30:24;;;;;;;;;;;;;;;17.45;93.01;100971.44;7388914;19;19919;-60
2022/10/30 04:32:51;;;;;;;;;;;;;;;17.44;93.04;100971.59;7385997;19;19929;-62
2022/10/30 04:35:19;;;;;;;;;;;;;;;17.43;92.76;100972.63;7386996;19;19930;-61
2022/10/30 04:37:49;;;;;;;;;;;;;;;17.44;93.58;100975.09;7385679;19;19915;-60
2022/10/30 04:40:16;;;;;;;;;;;;;;;17.45;93.46;100966.09;7385718;19;19941;-60
2022/10/30 04:42:45;;;;;;;;;;;;;;;17.43;93.39;100960.13;7385557;19;19914;-61
2022/10/30 04:45:12;;;;;;;;;;;;;;;17.40;93.00;100947.25;7385978;19;19951;-61
2022/10/30 04:47:41;;;;;;;;;;;;;;;17.37;93.19;100952.13;7385313;19;19926;-60
2022/10/30 04:50:08;;;;;;;;;;;;;;;17.35;93.45;100941.69;7384664;19;19914;-61
2022/10/30 04:52:35;;;;;;;;;;;;;;;17.35;93.87;100941.69;7384546;19;19930;-60
2022/10/30 04:55:02;;;;;;;;;;;;;;;17.34;93.64;100937.38;7384566;19;19927;-59
2022/10/30 04:57:30;;;;;;;;;;;;;;;17.34;93.51;100934.72;7382720;19;19922;-61
2022/10/30 04:59:57;;;;;;;;;;;;;;;17.34;93.50;100937.38;7385418;19;19930;-59
2022/10/30 05:02:24;;;;;;;;;;;;;;;17.35;93.63;100940.84;7387649;19;19945;-61
2022/10/30 05:04:51;;;;;;;;;;;;;;;17.35;93.76;100939.03;7383241;19;19968;-61
2022/10/30 05:07:19;;;;;;;;;;;;;;;17.36;93.78;100940.66;7387167;19;19915;-61
2022/10/30 05:09:46;;;;;;;;;;;;;;;17.38;93.75;100943.94;7386607;19;20547;-60
2022/10/30 05:12:13;;;;;;;;;;;;;;;17.38;93.38;100935.13;7384673;19;19918;-61
2022/10/30 05:14:40;;;;;;;;;;;;;;;17.39;93.30;100942.09;7386002;19;19942;-61
2022/10/30 05:17:06;;;;;;;;;;;;;;;17.40;93.58;100944.59;7385094;19;20475;-60
2022/10/30 05:19:33;;;;;;;;;;;;;;;17.39;93.35;100934.13;7386390;19;19925;-60
2022/10/30 05:22:00;;;;;;;;;;;;;;;17.37;93.23;100928.19;7383204;19;19930;-61
2022/10/30 05:24:27;;;;;;;;;;;;;;;17.36;93.51;100935.34;7386656;19;20605;-61
2022/10/30 05:26:54;;;;;;;;;;;;;;;17.36;93.71;100945.16;7383615;19;19915;-61
2022/10/30 05:29:21;;;;;;;;;;;;;;;17.38;94.03;100940.44;7385694;19;19918;-62
2022/10/30 05:31:47;;;;;;;;;;;;;;;17.37;93.69;100939.63;7386567;19;20011;-60
2022/10/30 05:34:14;;;;;;;;;;;;;;;17.38;93.64;100945.78;7386189;19;19921;-61
2022/10/30 05:36:41;;;;;;;;;;;;;;;17.36;93.78;100940.66;7383607;19;19946;-60
2022/10/30 05:39:08;;;;;;;;;;;;;;;17.34;93.76;100940.03;7384243;19;20336;-60
2022/10/30 05:41:35;;;;;;;;;;;;;;;17.35;93.95;100941.69;7383747;19;19931;-60
2022/10/30 05:44:02;;;;;;;;;;;;;;;17.37;94.28;100944.16;7382404;19;19923;-60
2022/10/30 05:46:29;;;;;;;;;;;;;;;17.36;94.31;100943.34;7385735;19;19923;-60
2022/10/30 05:48:55;;;;;;;;;;;;;;;17.36;94.09;100953.16;7384853;19;20277;-62
2022/10/30 05:54:40;;;;;;;;;;;;;;;17.34;94.23;100952.50;7384910;19;19910;-61
2022/10/30 05:57:07;;;;;;;;;;;;;;;17.34;94.29;100956.00;7382288;19;20593;-61
2022/10/30 05:59:34;;;;;;;;;;;;;;;17.35;94.04;100949.66;7383371;19;19923;-61
2022/10/30 06:02:01;;;;;;;;;;;;;;;17.38;94.35;100962.56;7376270;19;19934;-61
2022/10/30 06:04:28;;;;;;;;;;;;;;;17.40;94.47;100951.75;7383877;19;19938;-61
2022/10/30 06:06:55;;;;;;;;;;;;;;;17.40;94.17;100949.91;7384742;19;19933;-62
2022/10/30 06:09:22;;;;;;;;;;;;;;;17.40;94.24;100962.38;7385033;19;19921;-61
2022/10/30 06:11:49;;;;;;;;;;;;;;;17.43;93.84;100972.63;7380398;19;19918;-60
2022/10/30 06:14:15;;;;;;;;;;;;;;;17.44;93.99;100964.44;7383464;19;19922;-61
2022/10/30 06:16:42;;;;;;;;;;;;;;;17.44;94.05;100969.78;7383532;19;19919;-61
2022/10/30 06:19:09;;;;;;;;;;;;;;;17.45;93.82;100960.78;7382369;19;19939;-61
2022/10/30 06:21:44;;;;;;;;;;;;;;;17.47;93.72;100960.59;7384044;19;19921;-60
2022/10/30 06:24:11;;;;;;;;;;;;;;;17.48;93.53;100960.38;7384804;19;19914;-61
2022/10/30 06:26:38;;;;;;;;;;;;;;;17.49;93.67;100963.88;7382463;19;19926;-61
2022/10/30 06:29:05;;;;;;;;;;;;;;;17.48;93.79;100965.69;7380972;19;19921;-60
2022/10/30 06:31:32;;;;;;;;;;;;;;;17.46;93.53;100962.44;7382324;19;20453;-61
2022/10/30 06:33:59;;;;;;;;;;;;;;;17.46;93.81;100956.28;7390076;19;19925;-61
2022/10/30 06:36:25;;;;;;;;;;;;;;;17.48;94.04;100955.06;7391652;19;19986;-62
2022/10/30 06:38:52;;;;;;;;;;;;;;;17.48;93.98;100956.91;7390229;19;19922;-61
2022/10/30 06:41:19;;;;;;;;;;;;;;;17.48;93.69;100964.88;7389870;19;19915;-62
2022/10/30 06:43:54;;;;;;;;;;;;;;;17.47;93.82;100961.38;7389337;19;19914;-61
2022/10/30 06:46:21;;;;;;;;;;;;;;;17.47;93.48;100965.91;7389107;19;20478;-61
2022/10/30 06:48:54;;;;;;;;;;;;;;;17.45;93.73;100963.44;7389523;19;19915;-61
2022/10/30 06:51:21;;;;;;;;;;;;;;;17.44;93.93;100961.78;7389911;19;20032;-61
2022/10/30 06:53:49;;;;;;;;;;;;;;;17.47;94.49;100971.25;7390857;19;19915;-62
2022/10/30 06:56:16;;;;;;;;;;;;;;;17.50;94.21;100970.84;7390142;19;19922;-61
2022/10/30 06:58:43;;;;;;;;;;;;;;;17.50;94.25;100976.16;7387219;19;19919;-61
2022/10/30 07:01:10;;;;;;;;;;;;;;;17.50;94.27;100970.84;7390304;19;19927;-61
2022/10/30 07:03:37;;;;;;;;;;;;;;;17.48;94.04;100972.84;7390330;19;19929;-61
2022/10/30 07:06:04;;;;;;;;;;;;;;;17.47;94.34;100974.69;7385996;19;19919;-61
2022/10/30 07:08:31;;;;;;;;;;;;;;;17.48;94.77;100987.00;7389967;19;19921;-61
2022/10/30 07:10:58;;;;;;;;;;;;;;;17.50;95.05;100986.81;7388992;19;20347;-61
2022/10/30 07:13:25;;;;;;;;;;;;;;;17.49;95.16;100993.97;7387075;19;19915;-61
2022/10/30 07:15:52;;;;;;;;;;;;;;;17.49;94.73;100998.47;7389858;19;19915;-61
2022/10/30 07:18:19;;;;;;;;;;;;;;;17.47;95.25;100995.19;7388601;19;20561;-60
2022/10/30 07:20:45;;;;;;;;;;;;;;;17.47;95.74;101001.31;7389896;19;19929;-61
2022/10/30 07:23:12;;;;;;;;;;;;;;;17.47;96.07;100998.66;7389348;19;19926;-61
2022/10/30 07:25:39;;;;;;;;;;;;;;;17.48;96.86;101007.44;7388791;19;19915;-63
2022/10/30 07:28:06;;;;;;;;;;;;;;;17.49;97.49;100999.28;7385305;19;19950;-60
2022/10/30 07:30:33;;;;;;;;;;;;;;;17.48;97.88;100981.66;7390505;19;19915;-61
2022/10/30 07:33:01;;;;;;;;;;;;;;;17.47;97.53;100972.03;7389146;19;19914;-61
2022/10/30 07:35:28;;;;;;;;;;;;;;;17.44;97.69;100964.44;7389945;19;19954;-60
2022/10/30 07:37:55;;;;;;;;;;;;;;;17.40;97.77;100955.22;7388886;19;19926;-59
2022/10/30 07:40:22;;;;;;;;;;;;;;;17.39;98.16;100960.72;7388875;19;19940;-62
2022/10/30 07:42:54;;;;;;;;;;;;;;;17.39;98.39;100960.72;7385885;19;19918;-62
2022/10/30 07:45:21;;;;;;;;;;;;;;;17.40;98.91;100970.34;7388954;19;19915;-61
2022/10/30 07:47:48;;;;;;;;;;;;;;;17.38;98.99;100973.19;7388938;19;20281;-61
2022/10/30 07:50:15;;;;;;;;;;;;;;;17.38;99.07;100972.38;7390550;19;19929;-61
2022/10/30 07:52:42;;;;;;;;;;;;;;;17.36;99.16;100971.78;7387283;19;19922;-60
2022/10/30 07:55:09;;;;;;;;;;;;;;;17.34;99.07;100987.91;7389654;19;20321;-61
2022/10/30 07:57:37;;;;;;;;;;;;;;;17.31;98.96;100987.47;7383361;19;19918;-61
2022/10/30 08:00:05;;;;;;;;;;;;;;;17.32;99.71;100995.25;7383685;19;19915;-61
2022/10/30 08:02:32;;;;;;;;;;;;;;;17.34;100.00;100989.75;7386280;19;19938;-60
2022/10/30 08:04:59;;;;;;;;;;;;;;;17.33;100.00;100994.25;7388063;19;19985;-61
2022/10/30 08:07:29;;;;;;;;;;;;;;;17.31;99.36;100979.50;7388875;19;19930;-62
2022/10/30 08:09:57;;;;;;;;;;;;;;;17.28;99.11;100983.34;7390160;19;19946;-60
2022/10/30 08:12:24;;;;;;;;;;;;;;;17.27;99.04;100979.03;7384271;19;19914;-61
2022/10/30 08:14:51;;;;;;;;;;;;;;;17.26;98.83;100976.59;7388121;19;19947;-61
2022/10/30 08:17:18;;;;;;;;;;;;;;;17.28;99.18;100980.69;7387538;19;19950;-62
2022/10/30 08:19:45;;;;;;;;;;;;;;;17.28;99.12;100988.69;7385976;19;20336;-60
2022/10/30 08:22:12;;;;;;;;;;;;;;;17.29;98.96;101000.16;7388249;19;19986;-62
2022/10/30 08:24:39;;;;;;;;;;;;;;;17.29;99.04;100989.50;7386109;19;19919;-61
2022/10/30 08:27:07;;;;;;;;;;;;;;;17.28;99.04;100978.03;7386034;19;21861;-61
2022/10/30 08:29:33;;;;;;;;;;;;;;;17.26;99.06;100984.59;7387929;19;19933;-61
2022/10/30 08:32:00;;;;;;;;;;;;;;;17.24;99.21;100981.28;7387011;19;20531;-61
2022/10/30 08:34:30;;;;;;;;;;;;;;;17.27;99.92;100989.69;7386954;19;19919;-61
2022/10/30 08:36:57;;;;;;;;;;;;;;;17.27;100.00;100988.88;7385572;19;19917;-61
2022/10/30 08:39:24;;;;;;;;;;;;;;;17.24;99.69;100992.75;7385196;19;19918;-62
2022/10/30 08:41:51;;;;;;;;;;;;;;;17.23;99.47;100987.59;7382816;19;19922;-60
2022/10/30 08:44:18;;;;;;;;;;;;;;;17.21;99.55;100992.31;7385574;19;19918;-60
2022/10/30 08:46:44;;;;;;;;;;;;;;;17.19;99.92;100981.84;7385814;19;20298;-61
2022/10/30 08:49:11;;;;;;;;;;;;;;;17.17;99.62;100973.25;7387205;19;20299;-61
2022/10/30 08:51:38;;;;;;;;;;;;;;;17.19;100.00;100984.50;7385741;19;20629;-61
2022/10/30 08:54:05;;;;;;;;;;;;;;;17.19;100.00;100983.69;7388242;19;19990;-60
2022/10/30 08:56:32;;;;;;;;;;;;;;;17.20;100.00;100991.50;7381634;19;19926;-61
2022/10/30 08:58:59;;;;;;;;;;;;;;;17.21;100.00;100973.69;7378717;19;19946;-61
2022/10/30 09:01:26;;;;;;;;;;;;;;;17.19;99.93;100975.72;7387397;19;19918;-61
2022/10/30 09:03:53;;;;;;;;;;;;;;;17.19;99.70;100987.19;7386815;19;20344;-61
2022/10/30 09:06:20;;;;;;;;;;;;;;;17.19;99.52;100991.66;7386237;19;19922;-61
2022/10/30 09:08:46;;;;;;;;;;;;;;;17.21;99.82;100979.00;7384307;19;19921;-61
2022/10/30 09:11:13;;;;;;;;;;;;;;;17.22;99.78;100952.19;7384578;19;19918;-61
2022/10/30 09:13:40;;;;;;;;;;;;;;;17.19;99.48;100930.50;7382610;19;19926;-60
2022/10/30 09:16:07;;;;;;;;;;;;;;;17.17;99.56;100943.19;7383982;19;19923;-62
2022/10/30 09:18:34;;;;;;;;;;;;;;;17.14;99.09;100948.88;7384701;19;19925;-60
2022/10/30 09:21:01;;;;;;;;;;;;;;;17.08;98.49;100934.50;7385301;19;19919;-62
2022/10/30 09:23:30;;;;;;;;;;;;;;;17.07;98.72;100919.56;7385206;19;19918;-61
2022/10/30 09:25:57;;;;;;;;;;;;;;;17.08;98.87;100937.16;7387021;19;19922;-60
2022/10/30 09:28:24;;;;;;;;;;;;;;;17.08;99.09;100974.41;7379947;19;19929;-60
2022/10/30 09:30:55;;;;;;;;;;;;;;;17.09;98.93;100994.66;7387562;19;20344;-58
2022/10/30 09:33:22;;;;;;;;;;;;;;;17.05;98.25;101027.97;7381931;19;19918;-60
2022/10/30 09:35:49;;;;;;;;;;;;;;;17.04;98.15;101042.28;7386612;19;19926;-61
2022/10/30 09:38:16;;;;;;;;;;;;;;;16.99;97.31;101047.31;7384306;19;20340;-61
2022/10/30 09:40:51;;;;;;;;;;;;;;;16.98;96.70;101048.34;7385882;19;19925;-61
2022/10/30 09:43:19;;;;;;;;;;;;;;;16.98;96.72;101056.31;7381921;19;19915;-61
2022/10/30 09:45:46;;;;;;;;;;;;;;;16.97;96.30;101044.03;7384591;19;19922;-61
2022/10/30 09:48:16;;;;;;;;;;;;;;;16.96;96.24;101008.66;7384745;19;19942;-61
2022/10/30 09:50:46;;;;;;;;;;;;;;;16.94;95.81;100980.59;7384399;19;19918;-61
2022/10/30 09:53:16;;;;;;;;;;;;;;;16.93;95.53;101000.22;7384985;19;19926;-61
2022/10/30 09:55:49;;;;;;;;;;;;;;;16.90;95.41;101005.94;7385895;19;19915;-61
2022/10/30 09:58:17;;;;;;;;;;;;;;;16.87;94.99;100996.50;7381501;19;19930;-61
2022/10/30 10:00:47;;;;;;;;;;;;;;;16.89;95.40;100996.31;7385219;19;19923;-61
2022/10/30 10:03:17;;;;;;;;;;;;;;;16.89;95.58;101001.63;7384694;19;19918;-61
2022/10/30 10:05:49;;;;;;;;;;;;;;;16.87;95.23;101003.63;7380129;19;19918;-60
2022/10/30 10:08:18;;;;;;;;;;;;;;;16.89;95.25;101001.63;7389781;19;19926;-61
2022/10/30 10:10:49;;;;;;;;;;;;;;;16.90;95.05;101014.75;7392441;19;19955;-61
2022/10/30 10:13:19;;;;;;;;;;;;;;;16.90;95.15;101004.09;7385396;19;20348;-61
2022/10/30 10:15:48;;;;;;;;;;;;;;;16.95;95.01;101008.84;7389995;19;20447;-60
2022/10/30 10:18:17;;;;;;;;;;;;;;;16.94;94.84;101010.69;7389123;19;19918;-61
2022/10/30 10:20:47;;;;;;;;;;;;;;;16.96;94.82;101008.66;7391971;19;19918;-61
2022/10/30 10:23:16;;;;;;;;;;;;;;;16.95;94.73;101014.16;7391567;19;19929;-61
2022/10/30 10:25:49;;;;;;;;;;;;;;;16.95;94.83;101016.81;7389542;19;19926;-60
2022/10/30 10:28:23;;;;;;;;;;;;;;;16.96;95.14;101015.81;7387431;19;19914;-59
2022/10/30 10:30:52;;;;;;;;;;;;;;;16.97;94.82;101022.75;7391430;19;19941;-60
2022/10/30 10:33:22;;;;;;;;;;;;;;;17.00;95.22;101023.22;7391625;19;20601;-62
2022/10/30 10:35:52;;;;;;;;;;;;;;;17.01;94.49;101026.72;7391249;19;19938;-60
2022/10/30 10:38:22;;;;;;;;;;;;;;;17.01;94.38;101011.59;7391348;19;19923;-60
2022/10/30 10:40:52;;;;;;;;;;;;;;;17.01;94.37;101021.38;7393123;19;19918;-60
2022/10/30 10:43:21;;;;;;;;;;;;;;;17.03;93.90;101014.03;7387745;19;20594;-60
2022/10/30 10:45:56;;;;;;;;;;;;;;;17.02;93.96;101004.41;7392152;19;19923;-61
2022/10/30 10:48:26;;;;;;;;;;;;;;;17.03;94.01;101020.16;7391384;19;19938;-60
2022/10/30 10:50:56;;;;;;;;;;;;;;;17.04;93.64;101021.81;7388748;19;19919;-60
2022/10/30 10:53:27;;;;;;;;;;;;;;;17.02;92.56;101026.50;7390228;19;19926;-60
2022/10/30 10:55:56;;;;;;;;;;;;;;;17.02;92.13;101023.84;7391295;19;19922;-61
2022/10/30 10:58:24;;;;;;;;;;;;;;;17.00;91.33;101012.59;7386066;19;20359;-61
2022/10/30 11:00:51;;;;;;;;;;;;;;;17.01;91.37;101016.06;7388687;19;19923;-61
2022/10/30 11:03:22;;;;;;;;;;;;;;;16.99;90.93;101018.09;7388177;19;19923;-61
2022/10/30 11:05:53;;;;;;;;;;;;;;;17.00;91.48;101028.53;7387965;19;20030;-60
2022/10/30 11:08:23;;;;;;;;;;;;;;;17.02;90.02;101023.84;7388377;19;20236;-61
2022/10/30 11:10:56;;;;;;;;;;;;;;;17.04;89.53;101023.66;7388757;19;19939;-61
2022/10/30 11:13:26;;;;;;;;;;;;;;;17.05;89.33;101020.00;7386045;19;19919;-60
2022/10/30 11:15:59;;;;;;;;;;;;;;;17.06;89.37;101032.28;7388319;19;19925;-60
2022/10/30 11:18:25;;;;;;;;;;;;;;;17.08;89.22;101033.72;7386290;19;19915;-61
2022/10/30 11:20:55;;;;;;;;;;;;;;;17.10;89.07;101022.91;7388301;19;19929;-62
2022/10/30 11:23:25;;;;;;;;;;;;;;;17.12;88.85;101007.56;7389618;19;19918;-62
2022/10/30 11:25:52;;;;;;;;;;;;;;;17.13;89.10;101021.69;7390855;19;19919;-60
2022/10/30 11:28:27;;;;;;;;;;;;;;;17.16;88.56;101010.69;7384067;19;19922;-60
2022/10/30 11:31:14;;;;;;;;;;;;;;;17.19;88.92;101019.09;7391404;19;19922;-62
2022/10/30 11:33:41;;;;;;;;;;;;;;;17.22;88.66;101017.91;7387976;19;19926;-61
2022/10/30 11:36:08;;;;;;;;;;;;;;;17.27;89.34;101013.63;7390228;19;19926;-65
2022/10/30 11:38:41;;;;;;;;;;;;;;;17.29;89.26;101013.44;7389658;19;19978;-61
2022/10/30 11:41:09;;;;;;;;;;;;;;;17.31;89.11;101012.25;7389925;19;19914;-61
2022/10/30 11:43:37;;;;;;;;;;;;;;;17.36;89.77;101003.69;7385891;19;19983;-62
2022/10/30 11:46:09;;;;;;;;;;;;;;;17.39;89.64;101009.44;7389071;19;19933;-61
2022/10/30 11:48:38;;;;;;;;;;;;;;;17.43;90.09;101008.03;7387309;19;19911;-61
2022/10/30 11:51:05;;;;;;;;;;;;;;;17.50;91.36;101010.75;7390516;19;19927;-62
2022/10/30 11:53:34;;;;;;;;;;;;;;;17.54;91.35;101007.50;7387210;19;19922;-61
2022/10/30 11:56:03;;;;;;;;;;;;;;;17.57;90.31;101011.63;7389466;19;20221;-60
2022/10/30 11:58:32;;;;;;;;;;;;;;;17.54;88.82;101001.34;7385848;19;19921;-61
2022/10/30 12:00:59;;;;;;;;;;;;;;;17.57;88.58;101008.16;7385800;19;19978;-60
2022/10/30 12:03:28;;;;;;;;;;;;;;;17.59;89.73;101017.59;7387199;19;19946;-59
2022/10/30 12:06:06;;;;;;;;;;;;;;;17.56;88.78;101009.16;7385614;19;19930;-60
2022/10/30 12:08:33;;;;;;;;;;;;;;;17.58;88.11;101010.59;7390918;19;19934;-59
2022/10/30 12:11:02;;;;;;;;;;;;;;;17.60;88.15;101000.63;7389003;19;19946;-63
2022/10/30 12:13:32;;;;;;;;;;;;;;;17.64;88.50;100987.75;7384398;19;19919;-61
2022/10/30 12:16:02;;;;;;;;;;;;;;;17.69;89.64;101003.94;7388832;19;20264;-60
2022/10/30 12:18:31;;;;;;;;;;;;;;;17.73;89.81;100999.88;7386507;19;20000;-60
2022/10/30 12:20:58;;;;;;;;;;;;;;;17.75;89.20;101005.84;7384853;19;19919;-61
2022/10/30 12:23:27;;;;;;;;;;;;;;;17.76;88.27;100996.84;7387941;19;19918;-61
2022/10/30 12:25:56;;;;;;;;;;;;;;;17.74;87.71;100988.22;7387326;19;19918;-62
2022/10/30 12:28:25;;;;;;;;;;;;;;;17.77;87.85;100999.31;7383342;19;19945;-56
2022/10/30 12:30:55;;;;;;;;;;;;;;;17.80;87.85;101006.91;7385233;19;19925;-62
2022/10/30 12:33:25;;;;;;;;;;;;;;;17.81;87.20;100992.56;7386044;19;19919;-61
2022/10/30 12:35:55;;;;;;;;;;;;;;;17.85;87.81;100993.00;7388659;19;19919;-60
2022/10/30 12:38:25;;;;;;;;;;;;;;;17.88;87.76;100992.59;7387262;19;19922;-61
2022/10/30 12:40:57;;;;;;;;;;;;;;;17.93;88.59;100998.16;7385203;19;19922;-62
2022/10/30 12:43:26;;;;;;;;;;;;;;;17.93;87.97;100996.31;7382783;19;19934;-59